Strona główna
METAR-TAF:

METAR-TAF

Lotnisko :

Penn Yan Airport

Penn Yan, Nowy Jork, Stany Zjednoczone

Szerokość geograficzna: 42-38-35N, Długość geograficzna: 077-02-58W, wysokość: 275 m

Aktualna obserwacja pogody

Raport powstał 1 godzina i 16 minut temu, godzina 23:53 UTC
Wiatr 7 kt od południe
Temperatura 1°C
Wilgotność 80%
Ciśnienie 1006 hPa
Widzialność: 14.5 km
Zachmurzenie całkowite na wysokości 1700 ft
słaby śnieg

METAR: KPEO 262353Z AUTO 19007KT 9SM -SN OVC017 01/M02 A2971 RMK AO2 UPB2256E15SNE2256B15 SLP070 P0000 60001 T00111017 10011 21017 53002

czas: 20:09 (01:09 UTC)


TAF: brakujący

Obserwacja i prognoza pogody dla ponad 4000 lotnisk (raport METAR i TAF).

Dostępne stacje oznaczono żółtymi i czerwonymi punktami na mapie.

Najedź kursorem aby zobaczyć nazwę stacji.

Kliknij aby zobaczyć obserwacje i prognozy pogody.

Aby zmienić mapę: kliknij na zielony przycisk z czarnym krzyżykiem, aby powiększyć; na zielony przycisk z myślnikiem, aby pomniejszyć; na zielone strzałki, aby przejść do map sąsiednich.


METAR-TAF: